createdAt,value
2022-10-25T00:01:46.539Z,1.88
2022-10-25T00:06:50.052Z,1.95
2022-10-25T00:11:54.983Z,1.63
2022-10-25T00:16:58.287Z,2.63
2022-10-25T00:22:01.863Z,1.70
2022-10-25T00:27:07.123Z,1.40
2022-10-25T00:32:10.400Z,1.50
2022-10-25T00:37:13.766Z,1.75
2022-10-25T00:42:22.035Z,1.70
2022-10-25T00:47:44.687Z,2.00
2022-10-25T00:52:52.559Z,1.20
2022-10-25T00:58:00.868Z,1.65
2022-10-25T01:03:05.126Z,1.20
2022-10-25T01:08:08.951Z,1.33
2022-10-25T01:13:13.608Z,1.13
2022-10-25T01:18:22.858Z,1.00
2022-10-25T01:23:46.421Z,1.10
2022-10-25T01:29:10.504Z,0.70
2022-10-25T01:34:22.966Z,0.50
2022-10-25T01:39:30.894Z,0.73
2022-10-25T01:44:40.807Z,0.70
2022-10-25T01:49:49.107Z,0.90
2022-10-25T01:54:53.232Z,0.70
2022-10-25T02:00:08.295Z,0.80
2022-10-25T02:05:23.334Z,0.77
2022-10-25T02:10:32.925Z,0.85
2022-10-25T02:15:41.367Z,0.93
2022-10-25T02:20:47.919Z,0.70
2022-10-25T02:25:53.087Z,0.80
2022-10-25T02:30:59.871Z,1.27
2022-10-25T02:36:09.427Z,0.65
2022-10-25T02:41:13.292Z,0.65
2022-10-25T02:46:19.213Z,0.77
2022-10-25T02:51:24.132Z,0.65
2022-10-25T02:56:27.454Z,0.65
2022-10-25T03:01:30.963Z,0.50
2022-10-25T03:06:35.752Z,0.50
2022-10-25T03:11:39.040Z,0.50
2022-10-25T03:16:42.735Z,0.70
2022-10-25T03:21:47.399Z,0.80
2022-10-25T03:26:50.727Z,0.60
2022-10-25T03:31:53.962Z,0.50
2022-10-25T03:36:58.911Z,0.70
2022-10-25T03:42:02.398Z,0.50
2022-10-25T03:47:05.749Z,0.60
2022-10-25T03:52:10.423Z,0.40
2022-10-25T03:57:13.632Z,0.50
2022-10-25T04:02:17.163Z,0.60
2022-10-25T04:07:21.754Z,0.70
2022-10-25T04:12:25.015Z,0.50
2022-10-25T04:17:29.490Z,0.50
2022-10-25T04:22:34.230Z,0.55
2022-10-25T04:27:37.935Z,0.60
2022-10-25T04:32:41.333Z,0.50
2022-10-25T04:37:46.085Z,0.60
2022-10-25T04:42:49.551Z,0.60
2022-10-25T04:47:52.855Z,0.43
2022-10-25T04:52:57.657Z,0.35
2022-10-25T04:58:00.903Z,0.50
2022-10-25T05:03:04.239Z,0.60
2022-10-25T05:08:08.952Z,0.60
2022-10-25T05:13:12.607Z,0.40
2022-10-25T05:18:15.908Z,0.50
2022-10-25T05:23:20.538Z,0.50
2022-10-25T05:28:23.800Z,0.50
2022-10-25T05:33:27.147Z,0.55
2022-10-25T05:38:34.353Z,0.60
2022-10-25T05:43:40.894Z,0.75
2022-10-25T05:48:48.348Z,0.60
2022-10-25T05:53:54.872Z,0.60
2022-10-25T05:58:58.471Z,0.70
2022-10-25T06:04:01.892Z,0.68
2022-10-25T06:09:07.479Z,0.63
2022-10-25T06:14:12.147Z,0.70
2022-10-25T06:19:15.565Z,0.80
2022-10-25T06:24:20.490Z,0.75
2022-10-25T06:29:23.701Z,0.60
2022-10-25T06:34:27.008Z,0.60
2022-10-25T06:39:31.616Z,0.57
2022-10-25T06:44:34.880Z,0.63
2022-10-25T06:49:38.209Z,0.50
2022-10-25T06:54:42.873Z,0.45
2022-10-25T06:59:46.322Z,0.40
2022-10-25T07:04:49.648Z,0.47
2022-10-25T07:09:54.402Z,0.45
2022-10-25T07:14:57.691Z,0.50
2022-10-25T07:20:00.996Z,0.50
2022-10-25T07:25:06.429Z,0.57
2022-10-25T07:30:10.879Z,0.65
2022-10-25T07:35:14.154Z,0.52
2022-10-25T07:40:18.893Z,0.52
2022-10-25T07:45:24.410Z,0.50
2022-10-25T07:50:30.104Z,0.40
2022-10-25T07:55:34.860Z,0.40
2022-10-25T08:00:38.676Z,0.55
2022-10-25T08:05:42.035Z,0.60
2022-10-25T08:10:46.689Z,0.65
2022-10-25T08:15:53.334Z,0.45
2022-10-25T08:21:02.421Z,0.35
2022-10-25T08:26:08.171Z,0.40
2022-10-25T08:31:11.418Z,0.45
2022-10-25T08:36:14.970Z,0.52
2022-10-25T08:41:23.339Z,0.50
2022-10-25T08:46:31.765Z,0.43
2022-10-25T08:51:39.939Z,0.50
2022-10-25T08:56:56.925Z,0.40
2022-10-25T09:02:17.287Z,0.40
2022-10-25T09:07:38.407Z,0.40
2022-10-25T09:12:54.887Z,0.43
2022-10-25T09:17:58.124Z,0.52
2022-10-25T09:23:12.306Z,0.47
2022-10-25T09:28:22.584Z,0.50
2022-10-25T09:33:30.622Z,0.50
2022-10-25T09:38:41.725Z,0.47
2022-10-25T09:43:52.320Z,0.50
2022-10-25T09:49:00.369Z,0.50
2022-10-25T09:54:12.298Z,0.90
2022-10-25T09:59:17.443Z,0.70
2022-10-25T10:04:27.079Z,0.40
2022-10-25T10:09:32.548Z,0.32
2022-10-25T10:14:41.639Z,0.50
2022-10-25T10:19:46.126Z,0.40
2022-10-25T10:25:00.311Z,0.50
2022-10-25T10:30:10.432Z,0.77
2022-10-25T10:35:31.715Z,0.50
2022-10-25T10:40:34.929Z,0.43
2022-10-25T10:45:50.004Z,0.50
2022-10-25T10:50:53.536Z,0.52
2022-10-25T10:55:59.241Z,0.68
2022-10-25T11:01:05.812Z,0.73
2022-10-25T11:06:14.417Z,0.52
2022-10-25T11:11:20.860Z,0.50
2022-10-25T11:16:56.585Z,0.60
2022-10-25T11:22:32.219Z,0.70
2022-10-25T11:27:47.196Z,0.60
2022-10-25T11:33:29.420Z,0.98
2022-10-25T11:38:48.415Z,0.90
2022-10-25T11:44:09.576Z,1.20
2022-10-25T11:49:31.332Z,0.90
2022-10-25T11:54:43.135Z,0.60
2022-10-25T11:59:58.823Z,0.38
2022-10-25T12:05:17.968Z,0.57
2022-10-25T12:10:29.267Z,0.55
2022-10-25T12:15:38.516Z,0.63
2022-10-25T12:20:45.201Z,0.55
2022-10-25T12:25:51.631Z,0.40
2022-10-25T12:31:00.574Z,0.50
2022-10-25T12:36:08.371Z,0.45
2022-10-25T12:41:21.768Z,0.47
2022-10-25T12:46:54.064Z,0.50
2022-10-25T12:52:16.219Z,0.50
2022-10-25T12:57:28.010Z,0.50
2022-10-25T13:03:19.421Z,0.55
2022-10-25T13:08:28.038Z,0.40
2022-10-25T13:13:34.803Z,0.50
2022-10-25T13:18:47.793Z,0.40
2022-10-25T13:24:02.985Z,0.43
2022-10-25T13:29:49.685Z,0.40
2022-10-25T13:34:52.974Z,0.45
2022-10-25T13:39:56.276Z,0.60
2022-10-25T13:45:09.063Z,0.47
2022-10-25T13:50:18.958Z,0.60
2022-10-25T13:55:24.621Z,0.50
2022-10-25T14:00:39.863Z,0.40
2022-10-25T14:06:16.177Z,0.52
2022-10-25T14:11:26.135Z,0.60
2022-10-25T14:16:33.346Z,0.50
2022-10-25T14:21:36.913Z,0.30
2022-10-25T14:26:49.703Z,0.60
2022-10-25T14:31:55.269Z,0.40
2022-10-25T14:36:59.694Z,0.40
2022-10-25T14:42:05.161Z,0.60
2022-10-25T14:47:27.883Z,0.50
2022-10-25T14:52:32.998Z,0.60
2022-10-25T14:57:37.217Z,0.98
2022-10-25T15:02:42.184Z,0.50
2022-10-25T15:07:47.161Z,0.60
2022-10-25T15:12:53.221Z,0.50
2022-10-25T15:17:57.953Z,0.68
2022-10-25T15:23:06.826Z,0.50
2022-10-25T15:28:12.520Z,1.02
2022-10-25T15:33:20.040Z,0.55
2022-10-25T15:38:41.990Z,0.68
2022-10-25T15:43:50.683Z,0.75
2022-10-25T15:48:55.728Z,1.20
2022-10-25T15:53:58.989Z,0.98
2022-10-25T15:59:02.666Z,1.25
2022-10-25T16:04:07.937Z,0.80
2022-10-25T16:09:11.738Z,1.48
2022-10-25T16:14:22.434Z,2.03
2022-10-25T16:19:31.514Z,1.85
2022-10-25T16:24:35.400Z,2.05
2022-10-25T16:29:38.730Z,2.35
2022-10-25T16:34:46.188Z,2.15
2022-10-25T16:39:49.801Z,1.20
2022-10-25T16:44:53.096Z,1.17
2022-10-25T16:49:58.098Z,1.10
2022-10-25T16:55:01.659Z,1.13
2022-10-25T17:00:06.055Z,1.20
2022-10-25T17:05:18.558Z,1.00
2022-10-25T17:10:23.034Z,1.20
2022-10-25T17:15:26.715Z,1.00
2022-10-25T17:20:33.095Z,1.00
2022-10-25T17:25:36.640Z,1.02
2022-10-25T17:30:43.556Z,1.40
2022-10-25T17:35:49.426Z,1.23
2022-10-25T17:40:53.639Z,1.30
2022-10-25T17:46:03.111Z,1.10
2022-10-25T17:51:12.468Z,0.88
2022-10-25T17:56:18.366Z,1.00
2022-10-25T18:01:25.902Z,1.13
2022-10-25T18:06:32.680Z,1.27
2022-10-25T18:11:37.108Z,0.80
2022-10-25T18:16:41.821Z,1.20
2022-10-25T18:21:47.005Z,1.02
2022-10-25T18:26:53.121Z,1.05
2022-10-25T18:31:59.713Z,1.13
2022-10-25T18:37:10.399Z,1.20
2022-10-25T18:42:15.372Z,1.15
2022-10-25T18:47:20.322Z,1.10
2022-10-25T18:52:28.105Z,1.08
2022-10-25T18:57:36.987Z,1.30
2022-10-25T19:02:44.505Z,1.75
2022-10-25T19:07:53.029Z,1.58
2022-10-25T19:13:00.223Z,2.22
2022-10-25T19:18:06.401Z,2.60
2022-10-25T19:23:12.025Z,1.50
2022-10-25T19:28:16.859Z,1.88
2022-10-25T19:33:23.899Z,1.67
2022-10-25T19:38:34.599Z,1.90
2022-10-25T19:43:39.777Z,1.92
2022-10-25T19:48:46.230Z,1.77
2022-10-25T19:53:56.714Z,1.67
2022-10-25T19:59:01.236Z,1.55
2022-10-25T20:04:06.958Z,2.30
2022-10-25T20:09:13.565Z,2.08
2022-10-25T20:14:17.749Z,2.20
2022-10-25T20:19:27.766Z,1.65
2022-10-25T20:24:35.586Z,1.83
2022-10-25T20:29:40.457Z,1.65
2022-10-25T20:34:44.647Z,1.70
2022-10-25T20:39:50.965Z,2.20
2022-10-25T20:44:55.695Z,2.05
2022-10-25T20:50:00.377Z,2.08
2022-10-25T20:55:06.224Z,1.85
2022-10-25T21:00:10.301Z,1.88
2022-10-25T21:05:13.582Z,2.13
2022-10-25T21:10:18.314Z,2.00
2022-10-25T21:15:21.608Z,2.00
2022-10-25T21:20:24.875Z,2.13
2022-10-25T21:25:29.580Z,2.70
2022-10-25T21:30:33.715Z,2.25
2022-10-25T21:35:37.025Z,2.13
2022-10-25T21:40:41.727Z,1.88
2022-10-25T21:45:44.988Z,1.83
2022-10-25T21:50:55.325Z,1.60
2022-10-25T21:56:08.353Z,2.03
2022-10-25T22:01:13.470Z,1.98
2022-10-25T22:06:18.688Z,1.85
2022-10-25T22:11:25.034Z,2.15
2022-10-25T22:16:29.630Z,2.28
2022-10-25T22:21:35.118Z,2.42
2022-10-25T22:26:41.321Z,2.38
2022-10-25T22:31:44.536Z,2.03
2022-10-25T22:36:48.121Z,2.10
2022-10-25T22:41:53.820Z,2.63
2022-10-25T22:46:57.046Z,2.42
2022-10-25T22:52:00.298Z,2.58
2022-10-25T22:57:04.945Z,2.28
2022-10-25T23:02:08.201Z,2.10
2022-10-25T23:07:11.524Z,2.00
2022-10-25T23:12:16.448Z,2.30
2022-10-25T23:17:19.736Z,1.90
2022-10-25T23:22:23.000Z,1.92
2022-10-25T23:27:29.585Z,1.70
2022-10-25T23:32:33.097Z,1.33
2022-10-25T23:37:36.429Z,1.60
2022-10-25T23:42:41.140Z,1.77
2022-10-25T23:47:44.476Z,1.55
2022-10-25T23:52:47.967Z,1.45
2022-10-25T23:57:57.872Z,1.50
